Time;durP1;ratioP1;P1;durP2;ratioP2;P2;SDS_P1;SDS_P2;PMS_P1;PMS_P2;Temp;Humidity;BMP_temperature;BMP_pressure;BME280_temperature;BME280_humidity;BME280_pressure;Samples;Min_cycle;Max_cycle;Signal;HPM_P1;HPM_P2
2022/09/13 00:00:48;;;;;;;14.18;7.60;;;;;;;16.87;97.29;100921.13;4933413;29;20028;-66
2022/09/13 00:03:14;;;;;;;14.35;8.23;;;;;;;16.93;96.22;100914.81;4933360;29;20063;-66
2022/09/13 00:05:39;;;;;;;15.23;8.05;;;;;;;16.98;95.29;100916.81;4933216;29;20551;-66
2022/09/13 00:08:06;;;;;;;14.57;7.97;;;;;;;17.04;95.00;100918.56;4933205;29;20110;-66
2022/09/13 00:10:34;;;;;;;15.38;8.38;;;;;;;17.06;94.21;100921.84;4933176;29;20062;-66
2022/09/13 00:13:00;;;;;;;13.20;8.65;;;;;;;17.09;92.66;100919.47;4933035;29;20047;-66
2022/09/13 00:15:26;;;;;;;13.32;7.00;;;;;;;17.13;91.90;100913.59;4932609;29;20066;-66
2022/09/13 00:17:51;;;;;;;12.88;7.70;;;;;;;17.17;90.74;100914.78;4951286;29;20066;-66
2022/09/13 00:20:17;;;;;;;14.27;8.52;;;;;;;17.20;90.95;100911.59;4951345;29;20039;-66
2022/09/13 00:22:42;;;;;;;12.90;7.57;;;;;;;17.17;91.41;100901.28;4951248;28;20042;-66
2022/09/13 00:25:08;;;;;;;11.13;7.43;;;;;;;17.23;90.46;100903.03;4951217;29;20028;-66
2022/09/13 00:27:35;;;;;;;12.23;7.60;;;;;;;17.25;90.58;100903.59;4951195;29;20031;-66
2022/09/13 00:30:00;;;;;;;15.25;7.40;;;;;;;17.27;91.15;100906.88;4951259;29;20038;-66
2022/09/13 00:32:26;;;;;;;13.75;7.10;;;;;;;17.28;90.69;100897.72;4951255;29;20039;-66
2022/09/13 00:34:51;;;;;;;16.08;8.05;;;;;;;17.29;90.25;100897.50;4951177;29;20035;-66
2022/09/13 00:37:17;;;;;;;15.30;8.73;;;;;;;17.32;89.95;100888.13;4951194;29;20031;-66
2022/09/13 00:39:42;;;;;;;16.98;7.95;;;;;;;17.33;89.80;100892.44;4934225;29;20035;-66
2022/09/13 00:42:12;;;;;;;14.32;8.55;;;;;;;17.36;89.17;100883.88;4933995;29;20075;-66
2022/09/13 00:44:54;;;;;;;13.25;7.80;;;;;;;17.38;89.07;100878.25;4933942;29;20035;-66
2022/09/13 00:47:37;;;;;;;14.38;7.63;;;;;;;17.37;88.29;100874.75;4951090;29;21139;-66
2022/09/13 00:50:30;;;;;;;15.70;8.52;;;;;;;17.40;88.40;100879.63;4950767;28;20082;-66
2022/09/13 00:53:04;;;;;;;13.05;7.63;;;;;;;17.40;88.13;100876.13;4951041;28;20054;-66
2022/09/13 00:55:51;;;;;;;12.70;6.85;;;;;;;17.39;88.31;100875.28;4951032;29;20062;-66
2022/09/13 00:58:26;;;;;;;14.60;7.25;;;;;;;17.40;88.18;100876.13;4950853;29;20015;-66
2022/09/13 01:00:53;;;;;;;13.90;7.30;;;;;;;17.40;88.21;100868.03;4951166;29;20051;-66
2022/09/13 01:03:22;;;;;;;12.38;7.40;;;;;;;17.35;87.95;100859.88;4933536;29;20396;-66
2022/09/13 01:05:57;;;;;;;14.15;7.68;;;;;;;17.37;88.76;100861.25;4933503;29;20479;-66
2022/09/13 01:08:23;;;;;;;13.98;7.28;;;;;;;17.39;88.67;100869.09;4950699;29;20085;-66
2022/09/13 01:10:51;;;;;;;11.77;6.72;;;;;;;17.34;89.07;100866.28;4950668;29;20428;-66
2022/09/13 01:13:20;;;;;;;13.77;6.35;;;;;;;17.36;89.47;100870.38;4950522;29;20142;-66
2022/09/13 01:15:46;;;;;;;13.95;7.57;;;;;;;17.36;88.55;100874.97;4950458;28;20059;-66
2022/09/13 01:18:11;;;;;;;12.45;7.40;;;;;;;17.36;88.59;100867.69;4950420;29;20062;-66
2022/09/13 01:21:14;;;;;;;12.73;7.13;;;;;;;17.39;88.79;100877.16;4950479;29;20115;-66
2022/09/13 01:24:01;;;;;;;12.13;6.75;;;;;;;17.38;89.21;100864.75;4950704;28;20387;-66
2022/09/13 01:26:45;;;;;;;11.63;6.30;;;;;;;17.38;88.90;100870.97;4950642;29;20031;-66
2022/09/13 01:29:32;;;;;;;11.95;6.72;;;;;;;17.36;88.30;100873.09;4950525;28;20070;-66
2022/09/13 01:32:00;;;;;;;13.27;6.97;;;;;;;17.35;88.72;100867.94;4950567;29;20055;-66
2022/09/13 01:34:42;;;;;;;10.90;6.78;;;;;;;17.35;89.51;100868.75;4950546;29;20027;-66
2022/09/13 01:37:14;;;;;;;13.68;6.88;;;;;;;17.30;89.81;100857.88;4950537;28;20082;-66
2022/09/13 01:40:04;;;;;;;12.35;7.13;;;;;;;17.37;89.26;100872.03;4950460;29;20035;-66
2022/09/13 01:42:48;;;;;;;12.35;5.70;;;;;;;17.38;88.95;100870.16;4950656;28;20383;-66
2022/09/13 01:45:41;;;;;;;12.68;6.32;;;;;;;17.38;88.25;100872.84;4933198;29;20027;-66
2022/09/13 01:48:43;;;;;;;11.73;6.90;;;;;;;17.41;89.25;100864.28;4950482;29;20031;-66
2022/09/13 01:51:25;;;;;;;10.73;6.32;;;;;;;17.39;89.15;100859.13;4950535;28;20026;-66
2022/09/13 01:54:10;;;;;;;10.23;5.90;;;;;;;17.39;89.07;100856.41;4950413;29;20111;-66
2022/09/13 01:56:55;;;;;;;9.85;6.22;;;;;;;17.36;93.12;100865.00;4911021;28;20043;-66
2022/09/13 01:59:43;;;;;;;9.70;6.45;;;;;;;17.28;93.56;100860.81;4953958;29;20035;-66
2022/09/13 02:02:19;;;;;;;13.10;6.93;;;;;;;17.20;94.52;100861.19;4953794;29;20042;-66
2022/09/13 02:04:55;;;;;;;12.52;7.55;;;;;;;17.13;95.34;100859.69;4953767;29;20062;-66
2022/09/13 02:07:33;;;;;;;10.57;5.90;;;;;;;17.03;93.80;100861.16;4953723;29;20023;-66
2022/09/13 02:10:08;;;;;;;11.27;6.78;;;;;;;16.94;94.71;100854.47;4953912;29;20050;-65
2022/09/13 02:12:36;;;;;;;11.25;7.05;;;;;;;16.92;96.32;100850.38;4935380;29;20131;-66
2022/09/13 02:15:14;;;;;;;11.43;7.20;;;;;;;16.93;97.13;100850.16;4934766;29;20079;-66
2022/09/13 02:17:54;;;;;;;9.60;6.10;;;;;;;16.91;96.90;100852.28;4935189;29;20051;-66
2022/09/13 02:20:30;;;;;;;11.52;6.78;;;;;;;16.89;97.44;100857.06;4934828;29;20087;-66
2022/09/13 02:22:59;;;;;;;12.15;6.93;;;;;;;16.85;98.78;100847.84;4953394;28;20042;-66
2022/09/13 02:25:29;;;;;;;14.52;8.05;;;;;;;16.86;94.93;100852.97;4950083;29;20387;-65
2022/09/13 02:28:00;;;;;;;14.18;6.43;;;;;;;16.95;93.84;100863.38;4934981;29;20043;-66
2022/09/13 02:30:27;;;;;;;10.20;5.88;;;;;;;17.01;93.04;100854.34;4934996;29;20027;-66
2022/09/13 02:33:00;;;;;;;10.68;6.45;;;;;;;17.03;93.88;100858.47;4935044;29;20023;-66
2022/09/13 02:35:31;;;;;;;11.77;6.68;;;;;;;17.09;92.36;100856.66;4934925;29;20114;-66
2022/09/13 02:38:04;;;;;;;11.50;6.90;;;;;;;17.14;91.90;100862.16;4934993;29;20032;-66
2022/09/13 02:40:39;;;;;;;11.52;7.57;;;;;;;17.14;90.51;100851.38;4953067;29;20267;-66
2022/09/13 02:43:09;;;;;;;11.48;7.05;;;;;;;17.18;90.51;100849.81;4953155;29;20027;-66
2022/09/13 02:45:51;;;;;;;11.45;6.55;;;;;;;17.24;89.97;100854.28;4953006;29;20015;-66
2022/09/13 02:48:48;;;;;;;11.68;6.47;;;;;;;17.20;90.13;100850.41;4953109;29;20542;-66
2022/09/13 02:51:28;;;;;;;11.55;6.55;;;;;;;17.29;89.88;100861.63;4953121;29;20117;-67
2022/09/13 02:54:03;;;;;;;11.48;6.88;;;;;;;17.28;89.68;100862.69;4952786;28;20114;-66
2022/09/13 02:56:52;;;;;;;13.45;6.95;;;;;;;17.29;89.97;100862.47;4934446;29;20047;-66
2022/09/13 02:59:20;;;;;;;12.40;6.97;;;;;;;17.23;89.28;100868.78;4934379;29;20086;-66
2022/09/13 03:02:01;;;;;;;9.95;6.32;;;;;;;17.27;89.52;100877.25;4934540;29;20050;-66
2022/09/13 03:04:27;;;;;;;10.63;6.95;;;;;;;17.22;89.95;100877.94;4952727;28;20031;-66
2022/09/13 03:06:52;;;;;;;12.02;6.65;;;;;;;17.24;89.94;100877.72;4952757;29;20122;-66
2022/09/13 03:09:18;;;;;;;11.02;5.65;;;;;;;17.23;90.56;100881.47;4951654;28;20578;-66
2022/09/13 03:11:49;;;;;;;10.93;6.32;;;;;;;17.21;90.42;100883.56;4952487;29;20078;-66
2022/09/13 03:14:26;;;;;;;10.95;6.82;;;;;;;17.20;91.84;100880.06;4952176;29;20047;-66
2022/09/13 03:17:05;;;;;;;11.55;6.75;;;;;;;17.20;91.23;100881.94;4952473;29;20459;-70
2022/09/13 03:19:30;;;;;;;11.40;6.03;;;;;;;17.21;91.56;100872.78;4952403;28;20039;-70
2022/09/13 03:22:31;;;;;;;12.07;6.07;;;;;;;17.20;91.66;100874.66;4952378;29;20042;-70
2022/09/13 03:25:24;;;;;;;12.00;7.17;;;;;;;17.19;91.96;100870.34;4935137;29;20687;-70
2022/09/13 03:28:07;;;;;;;10.20;6.28;;;;;;;17.14;91.88;100856.78;4952383;29;20074;-70
2022/09/13 03:30:37;;;;;;;13.57;6.72;;;;;;;17.14;93.95;100861.34;4952505;29;20477;-71
2022/09/13 03:33:10;;;;;;;13.00;7.65;;;;;;;17.11;92.35;100861.81;4952383;29;20019;-71
2022/09/13 03:35:48;;;;;;;10.23;5.93;;;;;;;17.10;92.68;100869.06;4952129;29;20038;-70
2022/09/13 03:38:27;;;;;;;11.93;7.10;;;;;;;17.09;93.49;100862.88;4952082;29;20043;-70
2022/09/13 03:41:01;;;;;;;11.52;6.30;;;;;;;17.08;93.90;100855.88;4951768;29;20035;-71
2022/09/13 03:43:37;;;;;;;11.65;6.68;;;;;;;17.08;93.54;100853.16;4952088;28;20030;-70
2022/09/13 03:46:08;;;;;;;11.13;7.60;;;;;;;17.07;93.83;100846.13;4952018;29;20015;-70
2022/09/13 03:48:36;;;;;;;12.95;6.32;;;;;;;17.05;94.23;100856.31;4951947;28;20027;-70
2022/09/13 03:51:06;;;;;;;10.18;6.47;;;;;;;17.05;93.88;100859.00;4944883;28;20522;-71
2022/09/13 03:53:37;;;;;;;12.65;7.00;;;;;;;17.06;94.42;100849.06;4933447;29;20043;-70
2022/09/13 03:56:14;;;;;;;13.20;7.30;;;;;;;17.04;93.03;100846.59;4934367;29;20368;-70
2022/09/13 03:58:39;;;;;;;11.10;6.63;;;;;;;17.03;93.23;100858.47;4951879;29;20042;-70
2022/09/13 04:01:05;;;;;;;12.55;7.10;;;;;;;17.00;93.01;100856.25;4951728;29;20043;-70
2022/09/13 04:03:31;;;;;;;11.77;6.38;;;;;;;17.01;93.44;100857.06;4951645;29;20069;-70
2022/09/13 04:05:56;;;;;;;12.40;6.82;;;;;;;16.97;93.77;100842.41;4951246;28;20027;-70
2022/09/13 04:08:21;;;;;;;13.73;7.35;;;;;;;16.99;93.99;100851.88;4951459;29;20043;-70
2022/09/13 04:10:50;;;;;;;11.18;7.00;;;;;;;16.98;93.33;100862.94;4951481;28;20062;-70
2022/09/13 04:13:16;;;;;;;11.57;6.43;;;;;;;16.94;96.19;100867.16;4951323;29;20050;-70
2022/09/13 04:15:41;;;;;;;13.82;7.68;;;;;;;16.90;97.32;100869.50;4951193;28;20146;-70
2022/09/13 04:18:07;;;;;;;10.13;6.80;;;;;;;16.80;97.28;100859.34;4951389;28;20056;-71
2022/09/13 04:20:34;;;;;;;10.25;5.97;;;;;;;16.84;97.73;100867.75;4951148;28;20415;-70
2022/09/13 04:23:00;;;;;;;10.95;6.72;;;;;;;16.82;96.13;100877.94;4951488;29;20030;-70
2022/09/13 04:25:25;;;;;;;14.52;7.15;;;;;;;16.81;95.45;100887.06;4933266;29;20066;-70
2022/09/13 04:27:55;;;;;;;13.55;7.60;;;;;;;16.73;97.43;100885.53;4932902;29;20031;-70
2022/09/13 04:30:20;;;;;;;13.52;6.82;;;;;;;16.64;97.79;100893.16;4933030;29;20050;-70
2022/09/13 04:32:46;;;;;;;11.65;6.93;;;;;;;16.57;98.32;100888.97;4951243;29;20031;-70
2022/09/13 04:35:12;;;;;;;13.70;6.82;;;;;;;16.52;98.82;100884.28;4950969;29;20126;-70
2022/09/13 04:37:38;;;;;;;13.88;7.68;;;;;;;16.49;98.34;100890.13;4951182;29;20035;-70
2022/09/13 04:40:05;;;;;;;12.70;7.32;;;;;;;16.47;99.66;100878.78;4951038;29;20039;-71
2022/09/13 04:42:30;;;;;;;10.13;6.35;;;;;;;16.46;99.88;100882.53;4950956;29;20102;-70
2022/09/13 04:44:55;;;;;;;13.32;7.60;;;;;;;16.41;99.10;100877.84;4950891;29;20023;-70
2022/09/13 04:47:21;;;;;;;11.88;6.95;;;;;;;16.49;100.00;100889.31;4950903;29;20043;-70
2022/09/13 04:49:47;;;;;;;13.65;6.90;;;;;;;16.49;98.56;100882.06;4950826;28;20041;-70
2022/09/13 04:52:13;;;;;;;11.38;6.82;;;;;;;16.55;97.35;100891.06;4950935;29;20514;-70
2022/09/13 04:54:38;;;;;;;13.77;8.35;;;;;;;16.57;97.18;100895.16;4950843;28;20035;-70
2022/09/13 04:57:04;;;;;;;12.45;7.15;;;;;;;16.57;98.54;100895.16;4950923;29;21051;-70
2022/09/13 04:59:29;;;;;;;10.75;7.30;;;;;;;16.58;99.28;100899.50;4950899;28;20055;-70
2022/09/13 05:01:54;;;;;;;12.30;7.53;;;;;;;16.53;100.00;100891.31;4950785;29;20126;-71
2022/09/13 05:04:20;;;;;;;11.80;6.85;;;;;;;16.58;100.00;100898.66;4950964;28;20039;-71
2022/09/13 05:06:46;;;;;;;12.18;7.53;;;;;;;16.48;99.00;100883.13;4950734;29;20257;-70
2022/09/13 05:09:13;;;;;;;12.93;7.25;;;;;;;16.59;97.64;100895.75;4944688;29;20098;-70
2022/09/13 05:11:39;;;;;;;12.48;7.07;;;;;;;16.53;98.75;100883.25;4932391;29;20039;-70
2022/09/13 05:14:05;;;;;;;11.98;7.47;;;;;;;16.63;98.52;100898.78;4932108;29;20062;-70
2022/09/13 05:16:32;;;;;;;13.82;7.07;;;;;;;16.64;98.18;100898.56;4932337;29;20032;-70
2022/09/13 05:18:58;;;;;;;14.23;7.07;;;;;;;16.67;96.95;100907.22;4932216;29;20431;-70
2022/09/13 05:21:23;;;;;;;11.60;7.45;;;;;;;16.69;96.29;100905.09;4932233;29;20050;-70
2022/09/13 05:23:53;;;;;;;13.60;7.10;;;;;;;16.70;95.95;100902.16;4932324;29;20047;-70
2022/09/13 05:26:21;;;;;;;13.65;7.97;;;;;;;16.74;95.65;100906.03;4932231;29;20036;-71
2022/09/13 05:28:47;;;;;;;13.45;7.93;;;;;;;16.73;95.71;100895.50;4950381;29;20035;-70
2022/09/13 05:31:25;;;;;;;13.02;6.97;;;;;;;16.75;96.93;100904.16;4950424;28;20482;-70
2022/09/13 05:34:03;;;;;;;13.70;7.40;;;;;;;16.75;98.53;100904.97;4953692;29;20042;-70
2022/09/13 05:36:29;;;;;;;16.48;8.60;;;;;;;16.74;98.86;100908.75;4954213;29;20038;-70
2022/09/13 05:38:54;;;;;;;18.80;7.97;;;;;;;16.72;99.27;100902.75;4948397;29;20395;-70
2022/09/13 05:41:20;;;;;;;13.63;7.65;;;;;;;16.67;98.34;100899.97;4935836;29;20035;-70
2022/09/13 05:43:46;;;;;;;13.48;7.80;;;;;;;16.74;98.38;100915.97;4935789;29;20035;-70
2022/09/13 05:46:18;;;;;;;22.23;8.25;;;;;;;16.76;97.80;100909.28;4954012;29;20132;-70
2022/09/13 05:48:44;;;;;;;13.25;7.97;;;;;;;16.77;97.51;100910.16;4954158;28;20494;-70
2022/09/13 05:51:18;;;;;;;17.55;9.00;;;;;;;16.78;96.21;100906.41;4954079;28;20038;-70
2022/09/13 05:53:46;;;;;;;16.15;7.13;;;;;;;16.83;95.64;100914.59;4941212;29;20040;-69
2022/09/13 05:56:15;;;;;;;14.88;8.20;;;;;;;16.86;95.39;100908.75;4953654;29;20044;-69
2022/09/13 05:58:42;;;;;;;16.73;9.10;;;;;;;16.90;94.94;100914.47;4954212;29;20031;-71
2022/09/13 06:01:09;;;;;;;17.67;9.38;;;;;;;16.93;95.06;100906.75;4953973;29;20564;-70
2022/09/13 06:03:35;;;;;;;17.65;8.75;;;;;;;16.97;94.40;100907.06;4953494;28;20039;-70
2022/09/13 06:06:02;;;;;;;17.77;9.55;;;;;;;16.99;94.19;100900.41;4953694;29;20187;-70
2022/09/13 06:08:29;;;;;;;17.42;8.00;;;;;;;17.03;94.35;100909.66;4953567;29;20046;-70
2022/09/13 06:11:02;;;;;;;15.40;8.88;;;;;;;17.06;94.34;100906.47;4953620;29;20039;-69
2022/09/13 06:13:28;;;;;;;15.70;8.65;;;;;;;17.05;94.42;100899.44;4953534;29;20051;-69
2022/09/13 06:15:55;;;;;;;17.25;9.18;;;;;;;17.10;93.82;100912.19;4953283;28;20027;-69
2022/09/13 06:18:23;;;;;;;12.88;8.00;;;;;;;17.13;93.32;100913.59;4951972;28;20027;-70
2022/09/13 06:20:49;;;;;;;17.30;9.18;;;;;;;17.16;93.71;100911.25;4953302;29;20130;-70
2022/09/13 06:23:15;;;;;;;15.55;8.73;;;;;;;17.20;93.24;100915.09;4953221;28;20039;-71
2022/09/13 06:25:40;;;;;;;17.20;8.90;;;;;;;17.24;92.98;100912.75;4935323;29;20035;-75
2022/09/13 06:28:06;;;;;;;14.82;8.30;;;;;;;17.22;92.49;100899.50;4952844;28;20055;-71
2022/09/13 06:30:32;;;;;;;16.90;9.13;;;;;;;17.29;92.44;100910.13;4953311;29;20089;-70
2022/09/13 06:32:58;;;;;;;16.67;9.18;;;;;;;17.32;92.67;100909.69;4953231;29;20031;-70
2022/09/13 06:35:24;;;;;;;14.27;8.90;;;;;;;17.28;93.10;100889.66;4953137;29;20062;-70
2022/09/13 06:37:52;;;;;;;15.50;8.70;;;;;;;17.41;94.45;100907.41;4952916;29;20415;-70
2022/09/13 06:40:18;;;;;;;16.85;8.82;;;;;;;17.44;95.28;100907.75;4953054;29;20035;-70
2022/09/13 06:42:43;;;;;;;18.00;10.13;;;;;;;17.46;95.86;100900.25;4952834;28;20027;-70
2022/09/13 06:45:09;;;;;;;20.13;8.95;;;;;;;17.48;96.76;100903.53;4952876;28;20027;-71
2022/09/13 06:47:34;;;;;;;16.02;9.63;;;;;;;17.51;97.19;100894.13;4952926;29;20031;-71
2022/09/13 06:50:00;;;;;;;17.95;9.38;;;;;;;17.52;96.82;100895.75;4952756;29;20031;-71
2022/09/13 06:52:26;;;;;;;20.20;10.55;;;;;;;17.53;96.73;100895.53;4952739;28;20383;-70
2022/09/13 06:54:52;;;;;;;16.35;9.57;;;;;;;17.51;95.75;100891.44;4952707;29;20058;-70
2022/09/13 06:57:17;;;;;;;14.80;9.23;;;;;;;17.55;95.95;100903.34;4952868;29;20118;-71
2022/09/13 06:59:42;;;;;;;16.27;9.88;;;;;;;17.51;96.26;100894.13;4952876;29;20038;-71
2022/09/13 07:02:09;;;;;;;19.77;11.18;;;;;;;17.58;96.47;100899.34;4952660;29;20023;-71
2022/09/13 07:04:34;;;;;;;19.20;10.15;;;;;;;17.64;94.77;100906.50;4952650;29;20031;-72
2022/09/13 07:07:00;;;;;;;19.60;11.88;;;;;;;17.71;94.99;100902.59;4952492;29;20046;-70
2022/09/13 07:09:25;;;;;;;19.58;11.73;;;;;;;17.79;94.34;100897.84;4951017;29;20050;-70
2022/09/13 07:11:53;;;;;;;20.77;11.60;;;;;;;17.83;94.10;100886.34;4934030;29;20400;-70
2022/09/13 07:14:24;;;;;;;21.15;11.50;;;;;;;17.96;94.24;100904.94;4933589;29;20047;-70
2022/09/13 07:16:50;;;;;;;20.50;11.77;;;;;;;18.07;93.23;100913.19;4952209;29;20664;-70
2022/09/13 07:19:21;;;;;;;21.45;12.10;;;;;;;18.14;92.93;100909.28;4952231;28;20038;-70
2022/09/13 07:21:48;;;;;;;25.35;12.27;;;;;;;18.22;93.45;100908.03;4952434;29;20031;-70
2022/09/13 07:24:15;;;;;;;19.65;11.70;;;;;;;18.28;93.88;100915.16;4952398;29;20054;-70
2022/09/13 07:26:40;;;;;;;18.65;11.52;;;;;;;18.32;94.03;100910.09;4952310;29;20039;-70
2022/09/13 07:29:09;;;;;;;19.58;12.32;;;;;;;18.37;94.04;100913.69;4952360;28;20027;-70
2022/09/13 07:31:37;;;;;;;26.48;12.98;;;;;;;18.43;93.87;100917.28;4952095;29;20027;-70
2022/09/13 07:34:04;;;;;;;19.05;11.98;;;;;;;18.47;94.45;100918.44;4951893;28;20027;-70
2022/09/13 07:36:32;;;;;;;20.95;12.48;;;;;;;18.53;93.29;100922.84;4952074;28;20027;-70
2022/09/13 07:38:58;;;;;;;24.80;13.18;;;;;;;18.63;93.54;100919.47;4951930;29;20035;-70
2022/09/13 07:41:26;;;;;;;25.77;13.75;;;;;;;18.71;93.64;100904.72;4951898;29;20035;-70
2022/09/13 07:43:51;;;;;;;23.20;13.68;;;;;;;18.81;92.86;100916.50;4951879;29;20106;-71
2022/09/13 07:46:25;;;;;;;22.80;15.02;;;;;;;18.95;92.67;100932.34;4937490;28;20051;-72
2022/09/13 07:48:55;;;;;;;24.13;14.32;;;;;;;18.98;90.60;100937.25;4937309;28;20027;-70
2022/09/13 07:51:23;;;;;;;27.52;16.63;;;;;;;19.01;91.32;100928.63;4934561;28;20031;-70
2022/09/13 07:53:50;;;;;;;23.85;16.55;;;;;;;19.16;91.34;100938.84;4933609;29;20051;-70
2022/09/13 07:56:18;;;;;;;27.85;16.92;;;;;;;19.24;90.17;100936.50;4932765;29;20115;-71
2022/09/13 07:58:45;;;;;;;26.67;15.63;;;;;;;19.30;91.27;100931.16;4933376;29;20039;-70
2022/09/13 08:01:20;;;;;;;28.35;17.20;;;;;;;19.40;89.73;100939.38;4933420;29;20039;-70
2022/09/13 08:03:54;;;;;;;23.95;16.90;;;;;;;19.50;90.64;100936.81;4951647;29;20031;-71
2022/09/13 08:06:21;;;;;;;26.00;16.60;;;;;;;19.59;90.59;100935.25;4951564;28;20031;-71
2022/09/13 08:08:47;;;;;;;23.88;15.05;;;;;;;19.70;90.29;100936.22;4933028;29;20034;-71
2022/09/13 08:11:17;;;;;;;27.30;17.27;;;;;;;19.76;89.65;100935.22;4933023;29;20467;-70
2022/09/13 08:13:43;;;;;;;27.95;18.35;;;;;;;19.86;88.48;100937.19;4932989;29;20075;-70
2022/09/13 08:16:08;;;;;;;25.60;18.15;;;;;;;20.02;88.32;100938.16;4933093;29;20028;-70
2022/09/13 08:18:34;;;;;;;26.52;17.77;;;;;;;20.31;87.08;100938.66;4932929;29;20041;-70
2022/09/13 08:21:00;;;;;;;27.85;19.15;;;;;;;20.53;85.48;100923.09;4933055;29;20039;-71
2022/09/13 08:23:27;;;;;;;26.42;17.58;;;;;;;20.67;84.90;100939.75;4951210;29;20086;-70
2022/09/13 08:25:52;;;;;;;27.67;18.77;;;;;;;20.68;85.17;100938.66;4951199;28;20042;-71
2022/09/13 08:28:20;;;;;;;26.30;19.33;;;;;;;20.67;85.66;100938.91;4951131;28;20039;-70
2022/09/13 08:30:46;;;;;;;28.52;19.85;;;;;;;20.68;86.47;100937.84;4951074;29;20026;-71
2022/09/13 08:33:12;;;;;;;28.42;19.95;;;;;;;20.73;85.54;100946.00;4951191;28;20090;-71
2022/09/13 08:35:38;;;;;;;28.30;20.55;;;;;;;20.79;85.05;100953.09;4950958;29;20431;-70
2022/09/13 08:38:04;;;;;;;27.88;19.85;;;;;;;20.83;84.90;100948.78;4951154;28;20031;-71
2022/09/13 08:40:38;;;;;;;30.80;20.08;;;;;;;20.82;85.24;100946.31;4951101;29;20535;-70
2022/09/13 08:43:36;;;;;;;26.20;19.15;;;;;;;20.83;85.87;100948.78;4950858;29;20069;-70
2022/09/13 08:46:15;;;;;;;24.58;18.25;;;;;;;20.86;85.68;100956.41;4933667;29;20019;-70
2022/09/13 08:48:46;;;;;;;24.75;17.63;;;;;;;20.85;84.88;100949.31;4950985;29;20051;-71
2022/09/13 08:51:34;;;;;;;26.83;16.90;;;;;;;20.92;85.29;100949.91;4950919;29;20042;-70
2022/09/13 08:53:59;;;;;;;26.38;17.55;;;;;;;20.92;85.52;100952.63;4933597;29;20114;-70
2022/09/13 08:56:45;;;;;;;29.05;18.45;;;;;;;21.02;87.35;100957.28;4950893;29;20031;-70
2022/09/13 08:59:19;;;;;;;30.80;18.90;;;;;;;21.06;85.93;100957.56;4940353;29;20089;-71
2022/09/13 09:02:06;;;;;;;27.92;18.00;;;;;;;21.15;85.82;100956.00;4950920;29;20061;-70
2022/09/13 09:04:49;;;;;;;24.55;17.67;;;;;;;21.30;85.61;100957.94;4950808;29;20027;-70
2022/09/13 09:07:22;;;;;;;24.30;18.23;;;;;;;21.38;84.65;100950.16;4926051;29;20028;-71
2022/09/13 09:09:55;;;;;;;29.33;17.20;;;;;;;21.48;84.65;100948.53;4936600;29;20038;-70
2022/09/13 09:12:42;;;;;;;25.75;18.70;;;;;;;21.55;83.33;100943.66;4936261;29;20034;-71
2022/09/13 09:15:23;;;;;;;23.88;16.40;;;;;;;21.56;84.66;100945.28;4935797;29;20043;-70
2022/09/13 09:17:53;;;;;;;23.35;16.55;;;;;;;21.66;83.36;100939.88;4954559;29;20024;-70
2022/09/13 09:20:32;;;;;;;25.70;17.48;;;;;;;21.77;82.10;100936.13;4954406;28;20027;-70
2022/09/13 09:23:05;;;;;;;23.80;15.85;;;;;;;21.84;80.72;100933.13;4954382;29;20378;-70
2022/09/13 09:25:33;;;;;;;23.58;16.63;;;;;;;21.91;81.87;100935.59;4954494;28;20034;-70
2022/09/13 09:27:58;;;;;;;24.73;15.63;;;;;;;21.91;81.67;100930.97;4954430;29;20082;-70
2022/09/13 09:30:37;;;;;;;22.90;16.00;;;;;;;22.01;81.33;100930.16;4953839;29;20031;-70
2022/09/13 09:33:05;;;;;;;23.38;14.38;;;;;;;22.05;81.59;100931.25;4936778;29;20027;-71
2022/09/13 09:35:55;;;;;;;23.55;13.48;;;;;;;21.96;82.09;100930.97;4954384;29;20394;-71
2022/09/13 09:38:36;;;;;;;19.75;12.57;;;;;;;21.93;82.33;100933.41;4954099;29;20375;-71
2022/09/13 09:41:17;;;;;;;25.90;14.88;;;;;;;21.89;82.82;100931.22;4954119;29;20089;-70
2022/09/13 09:44:00;;;;;;;16.08;10.23;;;;;;;21.79;81.38;100931.22;4954302;28;20119;-71
2022/09/13 09:46:31;;;;;;;22.73;15.00;;;;;;;21.67;81.01;100927.97;4954144;28;20038;-71
2022/09/13 09:50:07;;;;;;;20.40;11.67;;;;;;;21.69;82.33;100933.91;4954022;29;20031;-70
2022/09/13 09:51:52;;;;;;;21.17;12.48;;;;;;;21.64;81.21;100932.03;4953810;29;20049;-70
2022/09/13 09:54:17;;;;;;;25.90;14.80;;;;;;;21.65;82.07;100930.94;4953940;29;20109;-70
2022/09/13 09:56:54;;;;;;;22.65;14.15;;;;;;;21.73;83.07;100929.59;4953985;28;20027;-70
2022/09/13 09:59:31;;;;;;;21.45;13.20;;;;;;;21.82;83.46;100933.41;4953897;29;20046;-70
2022/09/13 10:02:03;;;;;;;23.40;14.23;;;;;;;21.94;82.81;100935.84;4953757;28;20035;-71
2022/09/13 10:04:29;;;;;;;23.33;13.68;;;;;;;22.04;82.90;100929.63;4950248;29;20059;-71
2022/09/13 10:07:27;;;;;;;21.90;15.55;;;;;;;22.15;82.46;100927.72;4953651;29;20049;-70
2022/09/13 10:10:05;;;;;;;20.98;12.48;;;;;;;22.39;81.20;100925.28;4926984;29;20387;-71
2022/09/13 10:12:34;;;;;;;21.55;11.77;;;;;;;22.55;80.92;100935.03;4953513;28;20074;-70
2022/09/13 10:15:16;;;;;;;21.98;13.35;;;;;;;22.62;80.48;100932.84;4953165;28;20038;-70
2022/09/13 10:17:42;;;;;;;21.10;12.82;;;;;;;22.63;79.92;100934.47;4952460;28;20027;-70
2022/09/13 10:20:13;;;;;;;19.30;11.93;;;;;;;22.64;79.91;100922.53;4953043;28;20048;-70
2022/09/13 10:22:41;;;;;;;17.33;10.15;;;;;;;22.58;81.54;100928.22;4953104;28;20352;-71
2022/09/13 10:25:24;;;;;;;19.55;10.85;;;;;;;22.46;80.09;100917.66;4952663;29;20134;-70
2022/09/13 10:27:57;;;;;;;19.77;11.07;;;;;;;22.44;81.50;100928.00;4952695;29;20451;-70
2022/09/13 10:30:53;;;;;;;16.02;8.73;;;;;;;22.45;79.41;100919.56;4953173;29;20023;-71
2022/09/13 10:33:26;;;;;;;18.20;9.93;;;;;;;22.41;81.64;100915.75;4944661;29;20122;-70
2022/09/13 10:35:59;;;;;;;15.38;9.70;;;;;;;22.44;79.74;100908.97;4953166;28;20110;-70
2022/09/13 10:38:35;;;;;;;15.45;9.50;;;;;;;22.62;80.09;100923.88;4953100;29;20119;-70
2022/09/13 10:41:03;;;;;;;17.45;10.18;;;;;;;22.49;80.18;100911.69;4949581;29;20035;-70
2022/09/13 10:43:30;;;;;;;16.63;9.15;;;;;;;22.47;79.12;100922.00;4934134;29;20042;-70
2022/09/13 10:45:58;;;;;;;14.05;7.85;;;;;;;22.44;78.57;100911.69;4934435;29;20047;-70
2022/09/13 10:48:24;;;;;;;13.98;7.93;;;;;;;22.49;79.61;100919.84;4917634;29;20463;-70
2022/09/13 10:51:27;;;;;;;15.57;8.32;;;;;;;22.56;79.48;100908.66;4934621;29;20063;-70
2022/09/13 10:54:23;;;;;;;15.05;8.38;;;;;;;22.74;79.06;100908.91;4943478;29;20046;-71
2022/09/13 10:56:50;;;;;;;13.52;7.47;;;;;;;22.85;76.34;100915.13;4952923;29;20039;-71
2022/09/13 10:59:29;;;;;;;11.98;7.55;;;;;;;22.77;76.75;100904.81;4952749;28;20054;-71
2022/09/13 11:02:35;;;;;;;13.77;7.55;;;;;;;22.84;78.21;100916.19;4948472;28;20479;-70
2022/09/13 11:05:23;;;;;;;13.10;6.88;;;;;;;23.02;78.48;100908.56;4934250;29;20042;-70
2022/09/13 11:07:57;;;;;;;12.15;7.45;;;;;;;23.15;75.57;100910.66;4952559;29;20071;-71
2022/09/13 11:10:43;;;;;;;13.05;6.90;;;;;;;23.22;75.98;100899.50;4952925;29;20113;-71
2022/09/13 11:13:33;;;;;;;25.25;8.60;;;;;;;23.31;76.53;100903.25;4951940;29;20142;-70
2022/09/13 11:16:11;;;;;;;16.38;8.35;;;;;;;23.29;74.49;100898.09;4952459;28;20386;-71
2022/09/13 11:19:04;;;;;;;20.63;8.77;;;;;;;23.34;75.54;100898.06;4952574;29;20039;-71
2022/09/13 11:21:35;;;;;;;14.55;7.70;;;;;;;23.32;74.26;100894.81;4952358;29;20050;-71
2022/09/13 11:24:12;;;;;;;13.60;6.45;;;;;;;23.23;74.78;100890.22;4952476;29;20039;-70
2022/09/13 11:26:48;;;;;;;13.95;7.50;;;;;;;23.08;75.46;100880.22;4952253;29;20125;-70
2022/09/13 11:29:36;;;;;;;15.00;7.20;;;;;;;23.06;76.83;100885.16;4951879;28;20073;-70
2022/09/13 11:32:19;;;;;;;11.52;7.30;;;;;;;23.00;77.50;100880.81;4951930;28;20031;-71
2022/09/13 11:35:07;;;;;;;15.15;7.55;;;;;;;22.96;77.28;100886.81;4951849;28;20398;-70
2022/09/13 11:37:57;;;;;;;16.55;9.05;;;;;;;23.04;75.37;100881.88;4934160;29;20027;-70